sensor_id;sensor_type;location;lat;lon;timestamp;pressure;altitude;pressure_sealevel;temperature;humidity
10176;BME280;18221;38.704;0.152;2023-03-31T00:04:01;99252.13;;;26.03;13.30
10176;BME280;18221;38.704;0.152;2023-03-31T00:06:34;99244.41;;;25.88;14.42
10176;BME280;18221;38.704;0.152;2023-03-31T00:09:05;99248.09;;;25.94;12.81
10176;BME280;18221;38.704;0.152;2023-03-31T00:11:34;99249.97;;;26.05;14.37
10176;BME280;18221;38.704;0.152;2023-03-31T00:14:04;99245.25;;;26.00;12.52
10176;BME280;18221;38.704;0.152;2023-03-31T00:16:34;99230.94;;;26.05;13.00
10176;BME280;18221;38.704;0.152;2023-03-31T00:19:05;99226.44;;;25.99;12.29
10176;BME280;18221;38.704;0.152;2023-03-31T00:21:36;99229.41;;;26.09;11.72
10176;BME280;18221;38.704;0.152;2023-03-31T00:24:11;99220.03;;;26.05;11.80
10176;BME280;18221;38.704;0.152;2023-03-31T00:26:41;99225.44;;;26.23;11.74
10176;BME280;18221;38.704;0.152;2023-03-31T00:29:12;99223.66;;;26.17;13.54
10176;BME280;18221;38.704;0.152;2023-03-31T00:31:40;99205.97;;;26.08;12.73
10176;BME280;18221;38.704;0.152;2023-03-31T00:34:11;99198.34;;;25.75;11.95
10176;BME280;18221;38.704;0.152;2023-03-31T00:36:40;99186.69;;;25.86;12.32
10176;BME280;18221;38.704;0.152;2023-03-31T00:39:15;99185.84;;;25.97;12.30
10176;BME280;18221;38.704;0.152;2023-03-31T00:41:44;99175.09;;;25.91;11.60
10176;BME280;18221;38.704;0.152;2023-03-31T00:44:15;99181.03;;;25.99;14.18
10176;BME280;18221;38.704;0.152;2023-03-31T00:46:54;99175.81;;;26.09;14.74
10176;BME280;18221;38.704;0.152;2023-03-31T00:49:31;99164.69;;;26.11;13.89
10176;BME280;18221;38.704;0.152;2023-03-31T00:52:05;99161.59;;;25.96;12.96
10176;BME280;18221;38.704;0.152;2023-03-31T00:54:37;99175.22;;;25.96;12.27
10176;BME280;18221;38.704;0.152;2023-03-31T00:57:07;99169.44;;;26.04;12.34
10176;BME280;18221;38.704;0.152;2023-03-31T00:59:41;99171.44;;;26.08;13.23
10176;BME280;18221;38.704;0.152;2023-03-31T01:02:13;99169.81;;;26.19;12.09
10176;BME280;18221;38.704;0.152;2023-03-31T01:04:49;99176.81;;;26.15;12.75
10176;BME280;18221;38.704;0.152;2023-03-31T01:07:26;99173.72;;;26.23;12.96
10176;BME280;18221;38.704;0.152;2023-03-31T01:10:00;99177.84;;;26.14;12.52
10176;BME280;18221;38.704;0.152;2023-03-31T01:12:33;99177.47;;;26.10;12.56
10176;BME280;18221;38.704;0.152;2023-03-31T01:15:07;99164.84;;;26.27;12.32
10176;BME280;18221;38.704;0.152;2023-03-31T01:17:36;99154.53;;;26.29;12.25
10176;BME280;18221;38.704;0.152;2023-03-31T01:20:21;99160.72;;;26.25;12.30
10176;BME280;18221;38.704;0.152;2023-03-31T01:23:26;99156.06;;;26.25;11.58
10176;BME280;18221;38.704;0.152;2023-03-31T01:26:40;99162.59;;;26.48;12.43
10176;BME280;18221;38.704;0.152;2023-03-31T01:29:39;99150.13;;;26.52;14.33
10176;BME280;18221;38.704;0.152;2023-03-31T01:32:59;99158.31;;;26.28;14.75
10176;BME280;18221;38.704;0.152;2023-03-31T01:36:02;99155.75;;;26.22;14.72
10176;BME280;18221;38.704;0.152;2023-03-31T01:42:01;99170.75;;;26.24;14.23
10176;BME280;18221;38.704;0.152;2023-03-31T01:44:43;99162.97;;;26.28;15.48
10176;BME280;18221;38.704;0.152;2023-03-31T01:47:19;99170.50;;;26.26;15.84
10176;BME280;18221;38.704;0.152;2023-03-31T01:49:59;99156.09;;;26.14;17.96
10176;BME280;18221;38.704;0.152;2023-03-31T01:52:38;99173.56;;;26.06;18.97
10176;BME280;18221;38.704;0.152;2023-03-31T01:55:17;99163.72;;;25.94;19.43
10176;BME280;18221;38.704;0.152;2023-03-31T01:57:53;99164.50;;;25.71;19.08
10176;BME280;18221;38.704;0.152;2023-03-31T02:00:29;99160.72;;;25.72;18.25
10176;BME280;18221;38.704;0.152;2023-03-31T02:03:08;99153.28;;;25.67;16.90
10176;BME280;18221;38.704;0.152;2023-03-31T02:05:45;99147.22;;;25.54;15.29
10176;BME280;18221;38.704;0.152;2023-03-31T02:08:20;99150.34;;;25.39;15.04
10176;BME280;18221;38.704;0.152;2023-03-31T02:10:53;99143.22;;;25.38;15.14
10176;BME280;18221;38.704;0.152;2023-03-31T02:13:26;99148.75;;;25.32;14.89
10176;BME280;18221;38.704;0.152;2023-03-31T02:15:58;99149.84;;;25.42;13.93
10176;BME280;18221;38.704;0.152;2023-03-31T02:18:31;99148.22;;;25.41;14.39
10176;BME280;18221;38.704;0.152;2023-03-31T02:21:06;99140.81;;;25.48;14.36
10176;BME280;18221;38.704;0.152;2023-03-31T02:23:37;99140.34;;;25.51;13.91
10176;BME280;18221;38.704;0.152;2023-03-31T02:26:11;99134.66;;;25.53;13.76
10176;BME280;18221;38.704;0.152;2023-03-31T02:28:43;99143.06;;;25.51;13.27
10176;BME280;18221;38.704;0.152;2023-03-31T02:31:26;99137.75;;;25.56;12.74
10176;BME280;18221;38.704;0.152;2023-03-31T02:33:56;99130.56;;;25.62;12.02
10176;BME280;18221;38.704;0.152;2023-03-31T02:36:25;99129.59;;;25.56;12.63
10176;BME280;18221;38.704;0.152;2023-03-31T02:38:58;99118.59;;;25.63;12.51
10176;BME280;18221;38.704;0.152;2023-03-31T02:41:29;99114.25;;;25.73;13.21
10176;BME280;18221;38.704;0.152;2023-03-31T02:44:00;99108.00;;;25.85;13.77
10176;BME280;18221;38.704;0.152;2023-03-31T02:46:31;99107.88;;;25.80;12.81
10176;BME280;18221;38.704;0.152;2023-03-31T02:49:03;99105.03;;;25.74;13.11
10176;BME280;18221;38.704;0.152;2023-03-31T02:52:02;99102.78;;;25.60;12.45
10176;BME280;18221;38.704;0.152;2023-03-31T02:55:18;99098.75;;;25.74;12.65
10176;BME280;18221;38.704;0.152;2023-03-31T02:58:30;99103.28;;;25.80;13.21
10176;BME280;18221;38.704;0.152;2023-03-31T03:01:14;99088.69;;;25.63;13.28
10176;BME280;18221;38.704;0.152;2023-03-31T03:04:01;99077.53;;;25.41;13.83
10176;BME280;18221;38.704;0.152;2023-03-31T03:06:46;99072.00;;;25.48;14.28
10176;BME280;18221;38.704;0.152;2023-03-31T03:09:43;99085.09;;;25.39;14.48
10176;BME280;18221;38.704;0.152;2023-03-31T03:12:21;99091.63;;;25.50;14.39
10176;BME280;18221;38.704;0.152;2023-03-31T03:14:59;99109.03;;;25.60;15.24
10176;BME280;18221;38.704;0.152;2023-03-31T03:17:38;99112.03;;;25.41;14.53
10176;BME280;18221;38.704;0.152;2023-03-31T03:20:09;99114.69;;;25.29;14.98
10176;BME280;18221;38.704;0.152;2023-03-31T03:22:40;99103.81;;;25.17;15.29
10176;BME280;18221;38.704;0.152;2023-03-31T03:25:12;99114.69;;;25.17;15.87
10176;BME280;18221;38.704;0.152;2023-03-31T03:27:43;99117.34;;;25.36;15.52
10176;BME280;18221;38.704;0.152;2023-03-31T03:30:13;99100.09;;;25.42;16.36
10176;BME280;18221;38.704;0.152;2023-03-31T03:32:43;99093.25;;;25.39;15.94
10176;BME280;18221;38.704;0.152;2023-03-31T03:35:12;99101.31;;;25.16;17.09
10176;BME280;18221;38.704;0.152;2023-03-31T03:37:41;99106.41;;;25.24;17.07
10176;BME280;18221;38.704;0.152;2023-03-31T03:40:10;99111.97;;;25.29;17.84
10176;BME280;18221;38.704;0.152;2023-03-31T03:42:39;99112.34;;;25.33;17.50
10176;BME280;18221;38.704;0.152;2023-03-31T03:45:09;99109.50;;;25.28;17.67
10176;BME280;18221;38.704;0.152;2023-03-31T03:47:37;99112.59;;;25.31;18.30
10176;BME280;18221;38.704;0.152;2023-03-31T03:50:10;99108.25;;;25.42;18.16
10176;BME280;18221;38.704;0.152;2023-03-31T03:52:40;99100.44;;;25.45;18.55
10176;BME280;18221;38.704;0.152;2023-03-31T03:55:09;99094.97;;;25.52;18.46
10176;BME280;18221;38.704;0.152;2023-03-31T03:57:38;99095.31;;;25.55;18.52
10176;BME280;18221;38.704;0.152;2023-03-31T04:00:09;99106.09;;;25.62;18.64
10176;BME280;18221;38.704;0.152;2023-03-31T04:02:38;99104.06;;;25.57;18.76
10176;BME280;18221;38.704;0.152;2023-03-31T04:05:09;99093.91;;;25.64;19.03
10176;BME280;18221;38.704;0.152;2023-03-31T04:07:37;99089.66;;;25.68;18.60
10176;BME280;18221;38.704;0.152;2023-03-31T04:10:08;99092.25;;;25.63;18.59
10176;BME280;18221;38.704;0.152;2023-03-31T04:12:36;99100.84;;;25.49;19.55
10176;BME280;18221;38.704;0.152;2023-03-31T04:15:07;99093.09;;;25.34;19.22
10176;BME280;18221;38.704;0.152;2023-03-31T04:17:35;99092.75;;;25.31;19.57
10176;BME280;18221;38.704;0.152;2023-03-31T04:20:08;99106.69;;;25.34;19.32
10176;BME280;18221;38.704;0.152;2023-03-31T04:22:37;99115.00;;;25.39;19.14
10176;BME280;18221;38.704;0.152;2023-03-31T04:25:10;99113.53;;;25.25;19.64
10176;BME280;18221;38.704;0.152;2023-03-31T04:27:43;99120.25;;;25.23;19.50
10176;BME280;18221;38.704;0.152;2023-03-31T04:30:14;99114.22;;;25.21;19.83
10176;BME280;18221;38.704;0.152;2023-03-31T04:32:50;99125.16;;;25.14;19.65
10176;BME280;18221;38.704;0.152;2023-03-31T04:35:26;99117.78;;;25.21;19.83
10176;BME280;18221;38.704;0.152;2023-03-31T04:38:14;99115.44;;;25.06;19.80
10176;BME280;18221;38.704;0.152;2023-03-31T04:40:46;99115.69;;;25.05;19.90
10176;BME280;18221;38.704;0.152;2023-03-31T04:43:16;99100.56;;;25.09;19.99
10176;BME280;18221;38.704;0.152;2023-03-31T04:45:45;99111.44;;;25.09;20.22
10176;BME280;18221;38.704;0.152;2023-03-31T04:48:13;99123.41;;;25.08;20.05
10176;BME280;18221;38.704;0.152;2023-03-31T04:50:46;99129.94;;;25.00;20.20
10176;BME280;18221;38.704;0.152;2023-03-31T04:53:16;99136.63;;;25.16;20.06
10176;BME280;18221;38.704;0.152;2023-03-31T04:55:45;99123.81;;;25.23;20.28
10176;BME280;18221;38.704;0.152;2023-03-31T04:58:13;99138.03;;;25.07;20.30
10176;BME280;18221;38.704;0.152;2023-03-31T05:00:42;99136.38;;;24.88;20.65
10176;BME280;18221;38.704;0.152;2023-03-31T05:03:11;99146.94;;;24.78;20.71
10176;BME280;18221;38.704;0.152;2023-03-31T05:05:40;99148.22;;;24.75;20.76
10176;BME280;18221;38.704;0.152;2023-03-31T05:08:10;99149.59;;;24.66;21.26
10176;BME280;18221;38.704;0.152;2023-03-31T05:10:39;99141.22;;;24.68;21.04
10176;BME280;18221;38.704;0.152;2023-03-31T05:13:09;99138.78;;;24.60;21.28
10176;BME280;18221;38.704;0.152;2023-03-31T05:15:38;99149.06;;;24.76;20.95
10176;BME280;18221;38.704;0.152;2023-03-31T05:18:07;99150.91;;;24.82;21.07
10176;BME280;18221;38.704;0.152;2023-03-31T05:20:37;99144.22;;;24.96;20.80
10176;BME280;18221;38.704;0.152;2023-03-31T05:23:06;99147.69;;;25.03;21.07
10176;BME280;18221;38.704;0.152;2023-03-31T05:25:36;99136.16;;;25.07;21.33
10176;BME280;18221;38.704;0.152;2023-03-31T05:28:05;99140.47;;;24.97;21.29
10176;BME280;18221;38.704;0.152;2023-03-31T05:30:33;99136.19;;;24.89;21.12
10176;BME280;18221;38.704;0.152;2023-03-31T05:33:03;99139.25;;;24.93;21.57
10176;BME280;18221;38.704;0.152;2023-03-31T05:35:32;99137.38;;;24.93;21.62
10176;BME280;18221;38.704;0.152;2023-03-31T05:38:01;99139.25;;;24.93;21.55
10176;BME280;18221;38.704;0.152;2023-03-31T05:40:30;99145.97;;;24.90;21.30
10176;BME280;18221;38.704;0.152;2023-03-31T05:43:01;99155.53;;;24.93;21.00
10176;BME280;18221;38.704;0.152;2023-03-31T05:45:29;99156.25;;;24.88;21.16
10176;BME280;18221;38.704;0.152;2023-03-31T05:47:58;99152.47;;;24.89;21.05
10176;BME280;18221;38.704;0.152;2023-03-31T05:50:27;99160.25;;;24.86;20.70
10176;BME280;18221;38.704;0.152;2023-03-31T05:52:56;99165.59;;;24.92;20.63
10176;BME280;18221;38.704;0.152;2023-03-31T05:55:25;99166.97;;;24.83;20.64
10176;BME280;18221;38.704;0.152;2023-03-31T05:57:53;99152.81;;;24.75;20.72
10176;BME280;18221;38.704;0.152;2023-03-31T06:00:24;99154.41;;;24.64;20.53
10176;BME280;18221;38.704;0.152;2023-03-31T06:02:53;99157.94;;;24.65;20.52
10176;BME280;18221;38.704;0.152;2023-03-31T06:05:22;99164.25;;;24.40;20.52
10176;BME280;18221;38.704;0.152;2023-03-31T06:07:52;99162.69;;;24.51;20.53
10176;BME280;18221;38.704;0.152;2023-03-31T06:10:20;99154.78;;;24.49;20.53
10176;BME280;18221;38.704;0.152;2023-03-31T06:12:49;99165.88;;;24.66;20.15
10176;BME280;18221;38.704;0.152;2023-03-31T06:15:18;99163.38;;;24.65;20.01
10176;BME280;18221;38.704;0.152;2023-03-31T06:17:47;99161.81;;;24.93;19.99
10176;BME280;18221;38.704;0.152;2023-03-31T06:20:16;99172.63;;;25.00;19.83
10176;BME280;18221;38.704;0.152;2023-03-31T06:22:45;99173.66;;;24.99;20.43
10176;BME280;18221;38.704;0.152;2023-03-31T06:25:13;99174.09;;;25.14;19.74
10176;BME280;18221;38.704;0.152;2023-03-31T06:27:42;99176.94;;;25.19;19.87
10176;BME280;18221;38.704;0.152;2023-03-31T06:30:12;99175.31;;;25.18;19.67
10176;BME280;18221;38.704;0.152;2023-03-31T06:32:41;99180.63;;;25.25;20.26
10176;BME280;18221;38.704;0.152;2023-03-31T06:35:11;99165.78;;;25.09;20.09
10176;BME280;18221;38.704;0.152;2023-03-31T06:37:40;99162.78;;;24.99;20.01
10176;BME280;18221;38.704;0.152;2023-03-31T06:40:10;99157.94;;;25.01;20.22
10176;BME280;18221;38.704;0.152;2023-03-31T06:42:38;99158.53;;;25.21;19.97
10176;BME280;18221;38.704;0.152;2023-03-31T06:45:08;99161.75;;;25.30;20.58
10176;BME280;18221;38.704;0.152;2023-03-31T06:47:37;99163.50;;;25.24;20.28
10176;BME280;18221;38.704;0.152;2023-03-31T06:50:10;99174.38;;;25.24;19.80
10176;BME280;18221;38.704;0.152;2023-03-31T06:52:39;99180.28;;;25.21;19.91
10176;BME280;18221;38.704;0.152;2023-03-31T06:55:10;99183.50;;;25.30;19.93
10176;BME280;18221;38.704;0.152;2023-03-31T06:57:41;99190.59;;;25.31;19.76
10176;BME280;18221;38.704;0.152;2023-03-31T07:00:12;99182.50;;;25.24;19.69
10176;BME280;18221;38.704;0.152;2023-03-31T07:02:40;99178.22;;;25.16;19.68
10176;BME280;18221;38.704;0.152;2023-03-31T07:05:11;99165.63;;;25.22;20.09
10176;BME280;18221;38.704;0.152;2023-03-31T07:07:40;99163.50;;;25.24;19.80
10176;BME280;18221;38.704;0.152;2023-03-31T07:10:09;99154.41;;;25.48;20.06
10176;BME280;18221;38.704;0.152;2023-03-31T07:12:38;99139.81;;;25.72;19.67
10176;BME280;18221;38.704;0.152;2023-03-31T07:15:09;99145.59;;;25.76;19.19
10176;BME280;18221;38.704;0.152;2023-03-31T07:17:38;99142.78;;;25.94;19.35
10176;BME280;18221;38.704;0.152;2023-03-31T07:20:11;99135.84;;;26.33;19.05
10176;BME280;18221;38.704;0.152;2023-03-31T07:22:40;99130.50;;;26.50;18.39
10176;BME280;18221;38.704;0.152;2023-03-31T07:25:12;99140.41;;;26.79;17.84
10176;BME280;18221;38.704;0.152;2023-03-31T07:27:42;99139.09;;;26.93;17.42
10176;BME280;18221;38.704;0.152;2023-03-31T07:30:14;99146.16;;;27.06;18.14
10176;BME280;18221;38.704;0.152;2023-03-31T07:32:45;99158.94;;;27.05;17.64
10176;BME280;18221;38.704;0.152;2023-03-31T07:35:17;99154.22;;;27.01;17.93
10176;BME280;18221;38.704;0.152;2023-03-31T07:37:48;99162.97;;;27.03;18.50
10176;BME280;18221;38.704;0.152;2023-03-31T07:40:21;99173.06;;;27.02;18.38
10176;BME280;18221;38.704;0.152;2023-03-31T07:42:50;99181.13;;;26.97;18.90
10176;BME280;18221;38.704;0.152;2023-03-31T07:45:21;99173.53;;;26.99;19.57
10176;BME280;18221;38.704;0.152;2023-03-31T07:47:51;99177.53;;;27.08;19.57
10176;BME280;18221;38.704;0.152;2023-03-31T07:50:22;99169.31;;;27.20;19.33
10176;BME280;18221;38.704;0.152;2023-03-31T07:52:55;99176.53;;;27.26;19.52
10176;BME280;18221;38.704;0.152;2023-03-31T07:55:24;99179.09;;;27.32;19.55
10176;BME280;18221;38.704;0.152;2023-03-31T07:57:53;99187.69;;;27.24;19.34
10176;BME280;18221;38.704;0.152;2023-03-31T08:00:22;99182.56;;;27.28;19.81
10176;BME280;18221;38.704;0.152;2023-03-31T08:02:51;99182.81;;;27.26;20.87
10176;BME280;18221;38.704;0.152;2023-03-31T08:05:21;99189.88;;;27.39;21.22
10176;BME280;18221;38.704;0.152;2023-03-31T08:07:50;99181.81;;;27.44;21.46
10176;BME280;18221;38.704;0.152;2023-03-31T08:10:23;99190.56;;;27.46;20.07
10176;BME280;18221;38.704;0.152;2023-03-31T08:12:53;99197.59;;;27.30;19.60
10176;BME280;18221;38.704;0.152;2023-03-31T08:15:29;99195.22;;;27.34;21.25
10176;BME280;18221;38.704;0.152;2023-03-31T08:17:58;99198.31;;;27.37;22.36
10176;BME280;18221;38.704;0.152;2023-03-31T08:20:31;99209.44;;;27.36;21.45
10176;BME280;18221;38.704;0.152;2023-03-31T08:23:00;99213.88;;;27.25;21.23
10176;BME280;18221;38.704;0.152;2023-03-31T08:25:29;99223.56;;;27.33;21.50
10176;BME280;18221;38.704;0.152;2023-03-31T08:27:57;99221.66;;;27.33;20.48
10176;BME280;18221;38.704;0.152;2023-03-31T08:30:26;99222.25;;;27.35;20.25
10176;BME280;18221;38.704;0.152;2023-03-31T08:32:55;99216.22;;;27.45;20.22
10176;BME280;18221;38.704;0.152;2023-03-31T08:35:24;99206.94;;;27.46;19.85
10176;BME280;18221;38.704;0.152;2023-03-31T08:37:57;99220.84;;;27.61;19.78
10176;BME280;18221;38.704;0.152;2023-03-31T08:40:29;99215.72;;;27.76;19.86
10176;BME280;18221;38.704;0.152;2023-03-31T08:43:05;99218.19;;;27.78;20.45
10176;BME280;18221;38.704;0.152;2023-03-31T08:45:40;99218.84;;;27.68;19.85
10176;BME280;18221;38.704;0.152;2023-03-31T08:48:21;99207.13;;;27.84;19.64
10176;BME280;18221;38.704;0.152;2023-03-31T08:51:02;99207.59;;;27.98;19.03
10176;BME280;18221;38.704;0.152;2023-03-31T08:53:42;99204.75;;;28.04;19.66
10176;BME280;18221;38.704;0.152;2023-03-31T08:56:16;99205.50;;;28.16;19.23
10176;BME280;18221;38.704;0.152;2023-03-31T08:58:48;99204.59;;;28.28;19.08
10176;BME280;18221;38.704;0.152;2023-03-31T09:01:28;99206.34;;;28.34;19.70
10176;BME280;18221;38.704;0.152;2023-03-31T09:04:27;99200.75;;;28.45;19.02
10176;BME280;18221;38.704;0.152;2023-03-31T09:07:06;99207.13;;;28.51;18.86
10176;BME280;18221;38.704;0.152;2023-03-31T09:09:47;99205.41;;;28.45;18.06
10176;BME280;18221;38.704;0.152;2023-03-31T09:12:24;99204.91;;;28.48;18.60
10176;BME280;18221;38.704;0.152;2023-03-31T09:15:00;99199.94;;;28.45;18.29
10176;BME280;18221;38.704;0.152;2023-03-31T09:17:32;99213.84;;;28.27;18.45
10176;BME280;18221;38.704;0.152;2023-03-31T09:20:10;99217.25;;;28.34;18.96
10176;BME280;18221;38.704;0.152;2023-03-31T09:22:46;99223.63;;;28.39;18.67
10176;BME280;18221;38.704;0.152;2023-03-31T09:25:22;99225.63;;;28.44;18.29
10176;BME280;18221;38.704;0.152;2023-03-31T09:27:55;99224.69;;;28.55;18.64
10176;BME280;18221;38.704;0.152;2023-03-31T09:30:29;99222.97;;;28.15;17.16
10176;BME280;18221;38.704;0.152;2023-03-31T09:33:10;99227.25;;;28.45;17.46
10176;BME280;18221;38.704;0.152;2023-03-31T09:35:50;99212.84;;;28.66;20.10
10176;BME280;18221;38.704;0.152;2023-03-31T09:38:19;99214.31;;;28.73;20.83
10176;BME280;18221;38.704;0.152;2023-03-31T09:40:51;99217.59;;;28.70;20.01
10176;BME280;18221;38.704;0.152;2023-03-31T09:43:23;99211.03;;;28.55;17.15
10176;BME280;18221;38.704;0.152;2023-03-31T09:45:54;99220.38;;;28.75;17.97
10176;BME280;18221;38.704;0.152;2023-03-31T09:48:27;99222.84;;;28.77;21.02
10176;BME280;18221;38.704;0.152;2023-03-31T09:51:00;99210.84;;;28.78;21.03
10176;BME280;18221;38.704;0.152;2023-03-31T09:53:39;99212.63;;;28.67;21.11
10176;BME280;18221;38.704;0.152;2023-03-31T09:56:12;99210.41;;;28.31;21.47
10176;BME280;18221;38.704;0.152;2023-03-31T09:58:42;99214.75;;;28.32;21.00
10176;BME280;18221;38.704;0.152;2023-03-31T10:01:13;99214.47;;;28.00;21.33
10176;BME280;18221;38.704;0.152;2023-03-31T10:03:49;99219.84;;;27.79;20.78
10176;BME280;18221;38.704;0.152;2023-03-31T10:06:20;99209.75;;;27.79;21.01
10176;BME280;18221;38.704;0.152;2023-03-31T10:08:53;99209.69;;;27.91;20.97
10176;BME280;18221;38.704;0.152;2023-03-31T10:11:25;99208.41;;;28.10;20.13
10176;BME280;18221;38.704;0.152;2023-03-31T10:14:01;99205.25;;;28.51;19.73
10176;BME280;18221;38.704;0.152;2023-03-31T10:16:33;99208.16;;;28.28;19.28
10176;BME280;18221;38.704;0.152;2023-03-31T10:19:18;99215.75;;;28.43;19.08
10176;BME280;18221;38.704;0.152;2023-03-31T10:21:56;99226.25;;;28.51;19.30
10176;BME280;18221;38.704;0.152;2023-03-31T10:24:26;99223.63;;;28.39;19.59
10176;BME280;18221;38.704;0.152;2023-03-31T10:27:18;99208.88;;;28.57;18.40
10176;BME280;18221;38.704;0.152;2023-03-31T10:29:52;99216.66;;;28.32;19.00
10176;BME280;18221;38.704;0.152;2023-03-31T10:32:25;99205.91;;;28.08;19.49
10176;BME280;18221;38.704;0.152;2023-03-31T10:34:56;99213.69;;;28.16;18.35
10176;BME280;18221;38.704;0.152;2023-03-31T10:37:36;99214.47;;;28.29;18.57
10176;BME280;18221;38.704;0.152;2023-03-31T10:40:17;99207.06;;;28.46;18.74
10176;BME280;18221;38.704;0.152;2023-03-31T10:42:59;99202.25;;;28.69;18.70
10176;BME280;18221;38.704;0.152;2023-03-31T10:45:35;99199.69;;;28.63;19.20
10176;BME280;18221;38.704;0.152;2023-03-31T10:48:04;99196.63;;;28.59;19.23
10176;BME280;18221;38.704;0.152;2023-03-31T10:50:35;99193.66;;;28.44;19.65
10176;BME280;18221;38.704;0.152;2023-03-31T10:53:10;99195.75;;;28.21;19.91
10176;BME280;18221;38.704;0.152;2023-03-31T10:55:52;99185.94;;;27.91;20.48
10176;BME280;18221;38.704;0.152;2023-03-31T10:58:46;99175.94;;;27.80;20.33
10176;BME280;18221;38.704;0.152;2023-03-31T11:01:36;99184.38;;;27.95;20.85
10176;BME280;18221;38.704;0.152;2023-03-31T11:04:32;99174.53;;;27.78;20.19
10176;BME280;18221;38.704;0.152;2023-03-31T11:07:12;99184.75;;;28.15;20.11
10176;BME280;18221;38.704;0.152;2023-03-31T11:10:00;99190.09;;;28.44;19.60
10176;BME280;18221;38.704;0.152;2023-03-31T11:12:38;99184.28;;;28.57;19.52
10176;BME280;18221;38.704;0.152;2023-03-31T11:15:21;99173.38;;;28.78;18.78
10176;BME280;18221;38.704;0.152;2023-03-31T11:18:31;99171.38;;;28.91;18.12
10176;BME280;18221;38.704;0.152;2023-03-31T11:21:19;99162.72;;;28.60;18.64
10176;BME280;18221;38.704;0.152;2023-03-31T11:24:06;99142.56;;;28.61;18.67
10176;BME280;18221;38.704;0.152;2023-03-31T11:26:52;99143.81;;;28.70;18.80
10176;BME280;18221;38.704;0.152;2023-03-31T11:29:33;99135.34;;;28.94;18.40
10176;BME280;18221;38.704;0.152;2023-03-31T11:32:31;99128.88;;;29.05;19.00
10176;BME280;18221;38.704;0.152;2023-03-31T11:35:34;99126.53;;;28.92;18.90
10176;BME280;18221;38.704;0.152;2023-03-31T11:38:27;99124.34;;;29.15;18.31
10176;BME280;18221;38.704;0.152;2023-03-31T11:41:07;99130.25;;;29.24;18.20
10176;BME280;18221;38.704;0.152;2023-03-31T11:43:45;99137.53;;;29.40;18.26
10176;BME280;18221;38.704;0.152;2023-03-31T11:46:20;99132.16;;;29.50;18.86
10176;BME280;18221;38.704;0.152;2023-03-31T11:48:56;99128.06;;;29.53;18.54
10176;BME280;18221;38.704;0.152;2023-03-31T11:51:32;99128.44;;;29.34;18.19
10176;BME280;18221;38.704;0.152;2023-03-31T11:54:06;99124.41;;;29.42;18.35
10176;BME280;18221;38.704;0.152;2023-03-31T11:56:40;99116.59;;;29.07;18.14
10176;BME280;18221;38.704;0.152;2023-03-31T11:59:15;99113.31;;;29.05;18.34
10176;BME280;18221;38.704;0.152;2023-03-31T12:01:53;99122.22;;;28.74;18.36
10176;BME280;18221;38.704;0.152;2023-03-31T12:04:33;99117.53;;;28.91;18.45
10176;BME280;18221;38.704;0.152;2023-03-31T12:07:22;99118.63;;;28.90;18.70
10176;BME280;18221;38.704;0.152;2023-03-31T12:10:02;99124.91;;;28.91;18.66
10176;BME280;18221;38.704;0.152;2023-03-31T12:12:39;99113.75;;;28.97;18.50
10176;BME280;18221;38.704;0.152;2023-03-31T12:15:19;99106.22;;;29.04;18.66
10176;BME280;18221;38.704;0.152;2023-03-31T12:17:58;99092.06;;;29.12;18.50
10176;BME280;18221;38.704;0.152;2023-03-31T12:20:34;99082.91;;;29.23;18.30
10176;BME280;18221;38.704;0.152;2023-03-31T12:23:12;99081.56;;;29.53;18.10
10176;BME280;18221;38.704;0.152;2023-03-31T12:25:51;99072.22;;;29.49;17.98
10176;BME280;18221;38.704;0.152;2023-03-31T12:28:23;99070.06;;;29.24;18.13
10176;BME280;18221;38.704;0.152;2023-03-31T12:30:56;99072.94;;;29.39;17.88
10176;BME280;18221;38.704;0.152;2023-03-31T12:33:29;99072.59;;;29.30;17.54
10176;BME280;18221;38.704;0.152;2023-03-31T12:36:22;99047.91;;;28.55;18.47
10176;BME280;18221;38.704;0.152;2023-03-31T12:39:12;99067.13;;;28.82;19.46
10176;BME280;18221;38.704;0.152;2023-03-31T12:42:14;99069.97;;;28.92;18.28
10176;BME280;18221;38.704;0.152;2023-03-31T12:45:06;99062.06;;;28.69;18.37
10176;BME280;18221;38.704;0.152;2023-03-31T12:54:36;99029.31;;;29.22;18.49
10176;BME280;18221;38.704;0.152;2023-03-31T12:57:21;99027.19;;;29.29;18.64
10176;BME280;18221;38.704;0.152;2023-03-31T13:00:25;99012.53;;;29.41;18.36
10176;BME280;18221;38.704;0.152;2023-03-31T13:03:36;99015.72;;;29.32;18.77
10176;BME280;18221;38.704;0.152;2023-03-31T13:06:09;99017.22;;;29.50;18.72
10176;BME280;18221;38.704;0.152;2023-03-31T13:11:47;99000.59;;;29.93;18.80
10176;BME280;18221;38.704;0.152;2023-03-31T13:14:21;98999.34;;;30.11;18.96
10176;BME280;18221;38.704;0.152;2023-03-31T13:17:24;98992.63;;;30.39;18.36
10176;BME280;18221;38.704;0.152;2023-03-31T13:22:59;98999.47;;;30.36;18.12
10176;BME280;18221;38.704;0.152;2023-03-31T13:25:52;98989.91;;;30.39;18.50
10176;BME280;18221;38.704;0.152;2023-03-31T13:28:40;98994.00;;;30.41;18.56
10176;BME280;18221;38.704;0.152;2023-03-31T13:31:15;98991.44;;;30.25;18.31
10176;BME280;18221;38.704;0.152;2023-03-31T13:34:00;98987.72;;;30.46;18.25
10176;BME280;18221;38.704;0.152;2023-03-31T13:36:52;98974.88;;;30.62;16.68
10176;BME280;18221;38.704;0.152;2023-03-31T13:43:26;98962.00;;;30.57;17.47
10176;BME280;18221;38.704;0.152;2023-03-31T13:46:46;98946.38;;;30.47;17.04
10176;BME280;18221;38.704;0.152;2023-03-31T13:52:59;98941.75;;;30.58;18.43
10176;BME280;18221;38.704;0.152;2023-03-31T13:56:08;98938.16;;;30.52;18.00
10176;BME280;18221;38.704;0.152;2023-03-31T13:59:27;98931.38;;;30.03;17.55
10176;BME280;18221;38.704;0.152;2023-03-31T14:02:38;98927.25;;;29.54;18.28
10176;BME280;18221;38.704;0.152;2023-03-31T14:05:28;98931.03;;;29.48;19.00
10176;BME280;18221;38.704;0.152;2023-03-31T14:08:07;98928.03;;;29.49;19.43
10176;BME280;18221;38.704;0.152;2023-03-31T14:10:42;98928.78;;;29.40;19.85
10176;BME280;18221;38.704;0.152;2023-03-31T14:13:16;98928.25;;;29.43;20.47